createdAt,value
2019-02-27T00:00:16.151Z,2.97
2019-02-27T00:01:27.637Z,3.23
2019-02-27T00:02:34.793Z,3.70
2019-02-27T00:03:43.019Z,3.83
2019-02-27T00:04:50.255Z,3.70
2019-02-27T00:05:57.491Z,3.80
2019-02-27T00:07:04.646Z,3.10
2019-02-27T00:08:11.820Z,3.27
2019-02-27T00:09:18.969Z,3.70
2019-02-27T00:10:26.297Z,3.87
2019-02-27T00:11:33.452Z,3.63
2019-02-27T00:12:40.608Z,3.23
2019-02-27T00:13:47.947Z,2.90
2019-02-27T00:14:55.114Z,3.13
2019-02-27T00:16:02.331Z,3.17
2019-02-27T00:17:09.490Z,4.07
2019-02-27T00:18:16.629Z,3.27
2019-02-27T00:19:23.865Z,3.33
2019-02-27T00:20:31.010Z,3.03
2019-02-27T00:21:38.162Z,3.10
2019-02-27T00:22:45.321Z,4.33
2019-02-27T00:23:56.666Z,3.67
2019-02-27T00:25:04.030Z,3.27
2019-02-27T00:26:11.350Z,3.13
2019-02-27T00:27:18.510Z,3.30
2019-02-27T00:28:25.669Z,3.13
2019-02-27T00:29:32.912Z,3.37
2019-02-27T00:30:40.070Z,3.43
2019-02-27T00:31:47.227Z,3.17
2019-02-27T00:32:54.386Z,3.50
2019-02-27T00:34:01.559Z,3.23
2019-02-27T00:35:08.714Z,3.23
2019-02-27T00:36:15.864Z,3.40
2019-02-27T00:37:23.044Z,4.17
2019-02-27T00:38:30.190Z,3.33
2019-02-27T00:39:37.408Z,4.00
2019-02-27T00:40:44.585Z,3.30
2019-02-27T00:41:51.747Z,4.03
2019-02-27T00:42:58.939Z,3.80
2019-02-27T00:44:06.094Z,4.30
2019-02-27T00:45:13.450Z,3.03
2019-02-27T00:46:20.627Z,2.83
2019-02-27T00:47:27.773Z,3.93
2019-02-27T00:48:34.926Z,3.33
2019-02-27T00:49:43.056Z,3.67
2019-02-27T00:50:50.106Z,2.77
2019-02-27T00:51:57.283Z,3.23
2019-02-27T00:53:04.702Z,4.00
2019-02-27T00:54:12.840Z,3.73
2019-02-27T00:55:19.977Z,3.23
2019-02-27T00:56:27.127Z,3.67
2019-02-27T00:57:34.274Z,3.43
2019-02-27T00:58:41.420Z,3.30
2019-02-27T00:59:48.623Z,3.63
2019-02-27T01:00:55.777Z,3.20
2019-02-27T01:02:02.929Z,4.30
2019-02-27T01:03:10.248Z,3.50
2019-02-27T01:04:17.415Z,3.10
2019-02-27T01:05:24.590Z,3.77
2019-02-27T01:06:31.864Z,3.70
2019-02-27T01:07:39.024Z,3.53
2019-02-27T01:08:46.180Z,3.03
2019-02-27T01:09:54.401Z,3.43
2019-02-27T01:11:01.586Z,3.87
2019-02-27T01:12:09.816Z,3.33
2019-02-27T01:13:16.971Z,3.27
2019-02-27T01:14:24.146Z,2.63
2019-02-27T01:15:31.502Z,2.67
2019-02-27T01:16:38.670Z,3.60
2019-02-27T01:17:45.815Z,3.30
2019-02-27T01:18:52.985Z,3.70
2019-02-27T01:20:00.294Z,3.43
2019-02-27T01:21:07.435Z,3.17
2019-02-27T01:22:14.610Z,3.67
2019-02-27T01:23:21.765Z,3.43
2019-02-27T01:24:28.919Z,3.50
2019-02-27T01:25:36.077Z,3.40
2019-02-27T01:26:43.400Z,5.30
2019-02-27T01:27:50.560Z,2.53
2019-02-27T01:28:57.707Z,3.77
2019-02-27T01:30:05.704Z,4.10
2019-02-27T01:31:12.916Z,3.87
2019-02-27T01:32:20.075Z,3.33
2019-02-27T01:33:27.217Z,3.37
2019-02-27T01:34:34.368Z,3.67
2019-02-27T01:35:41.625Z,3.93
2019-02-27T01:36:48.776Z,3.47
2019-02-27T01:37:55.939Z,3.43
2019-02-27T01:39:03.783Z,3.53
2019-02-27T01:40:17.219Z,3.40
2019-02-27T01:41:24.570Z,4.47
2019-02-27T01:42:32.775Z,3.40
2019-02-27T01:43:40.733Z,3.23
2019-02-27T01:44:47.940Z,3.50
2019-02-27T01:45:55.110Z,4.13
2019-02-27T01:47:03.016Z,4.87
2019-02-27T01:48:09.942Z,3.77
2019-02-27T01:49:17.082Z,3.07
2019-02-27T01:50:38.387Z,4.33
2019-02-27T01:51:45.551Z,3.80
2019-02-27T01:52:52.709Z,5.30
2019-02-27T01:53:59.851Z,4.23
2019-02-27T01:55:07.189Z,4.57
2019-02-27T01:56:14.397Z,4.23
2019-02-27T01:57:21.533Z,4.00
2019-02-27T01:58:28.701Z,6.00
2019-02-27T01:59:35.779Z,4.27
2019-02-27T02:00:43.032Z,5.60
2019-02-27T02:01:50.180Z,4.30
2019-02-27T02:02:57.452Z,4.60
2019-02-27T02:04:05.806Z,4.20
2019-02-27T02:05:13.055Z,6.00
2019-02-27T02:06:20.271Z,5.07
2019-02-27T02:07:27.357Z,3.87
2019-02-27T02:08:34.511Z,4.47
2019-02-27T02:09:41.901Z,4.23
2019-02-27T02:10:49.223Z,3.70
2019-02-27T02:11:56.483Z,4.07
2019-02-27T02:13:17.442Z,3.80
2019-02-27T02:15:10.407Z,3.93
2019-02-27T02:17:08.100Z,3.27
2019-02-27T02:19:14.086Z,4.03
2019-02-27T02:21:00.917Z,4.70
2019-02-27T02:22:53.578Z,3.30
2019-02-27T02:25:03.950Z,5.13
2019-02-27T02:27:11.989Z,3.30
2019-02-27T02:28:48.315Z,3.80
2019-02-27T02:31:05.022Z,3.70
2019-02-27T02:32:29.150Z,3.10
2019-02-27T02:34:56.645Z,3.87
2019-02-27T02:36:26.347Z,3.00
2019-02-27T02:38:30.517Z,5.03
2019-02-27T02:40:30.873Z,4.00
2019-02-27T02:42:07.897Z,3.47
2019-02-27T02:43:59.731Z,4.63
2019-02-27T02:45:40.696Z,3.20
2019-02-27T02:47:55.372Z,2.90
2019-02-27T02:49:28.847Z,3.20
2019-02-27T02:51:32.231Z,3.03
2019-02-27T02:53:50.171Z,3.07
2019-02-27T02:55:32.378Z,3.37
2019-02-27T02:57:39.827Z,3.07
2019-02-27T02:59:49.213Z,3.20
2019-02-27T03:01:31.004Z,3.57
2019-02-27T03:03:21.886Z,2.80
2019-02-27T03:05:38.362Z,4.83
2019-02-27T03:07:50.102Z,3.63
2019-02-27T03:09:43.919Z,3.10
2019-02-27T03:11:24.461Z,4.30
2019-02-27T03:12:58.084Z,3.30
2019-02-27T03:14:45.379Z,3.70
2019-02-27T03:16:41.382Z,4.00
2019-02-27T03:19:09.311Z,3.30
2019-02-27T03:21:10.086Z,3.90
2019-02-27T03:22:54.431Z,3.27
2019-02-27T03:24:49.947Z,3.33
2019-02-27T03:27:06.220Z,3.67
2019-02-27T03:29:27.566Z,4.57
2019-02-27T03:31:22.046Z,3.40
2019-02-27T03:32:43.843Z,3.30
2019-02-27T03:34:48.255Z,3.40
2019-02-27T03:36:52.893Z,3.67
2019-02-27T03:39:07.990Z,2.63
2019-02-27T03:41:23.629Z,3.03
2019-02-27T03:43:16.572Z,2.80
2019-02-27T03:45:12.835Z,3.07
2019-02-27T03:47:16.603Z,3.27
2019-02-27T03:49:29.615Z,3.00
2019-02-27T03:51:40.585Z,3.43
2019-02-27T03:53:48.582Z,2.73
2019-02-27T03:55:51.456Z,3.10
2019-02-27T03:57:31.608Z,3.20
2019-02-27T03:59:21.404Z,3.37
2019-02-27T04:01:03.179Z,2.70
2019-02-27T04:03:23.563Z,4.47
2019-02-27T04:05:21.731Z,3.57
2019-02-27T04:07:07.711Z,3.60
2019-02-27T04:08:59.982Z,3.00
2019-02-27T04:10:07.447Z,3.63
2019-02-27T04:11:14.631Z,3.40
2019-02-27T04:12:21.781Z,3.27
2019-02-27T04:13:28.927Z,4.73
2019-02-27T04:14:40.279Z,3.10
2019-02-27T04:15:45.470Z,3.37
2019-02-27T04:16:52.636Z,4.10
2019-02-27T04:17:57.403Z,4.20
2019-02-27T04:19:05.139Z,4.10
2019-02-27T04:20:15.530Z,3.07
2019-02-27T04:21:24.996Z,3.00
2019-02-27T04:22:30.267Z,3.13
2019-02-27T04:23:37.408Z,3.63
2019-02-27T04:24:44.550Z,4.30
2019-02-27T04:25:51.702Z,4.47
2019-02-27T04:26:58.863Z,4.67
2019-02-27T04:28:09.184Z,3.67
2019-02-27T04:29:16.347Z,3.50
2019-02-27T04:30:23.501Z,3.70
2019-02-27T04:31:30.801Z,3.57
2019-02-27T04:32:38.078Z,3.93
2019-02-27T04:33:45.227Z,4.17
2019-02-27T04:34:52.394Z,4.07
2019-02-27T04:35:59.474Z,3.87
2019-02-27T04:37:06.626Z,3.43
2019-02-27T04:38:13.716Z,3.93
2019-02-27T04:39:20.881Z,3.97
2019-02-27T04:40:28.042Z,4.03
2019-02-27T04:41:35.284Z,3.63
2019-02-27T04:42:42.432Z,3.93
2019-02-27T04:43:49.580Z,3.90
2019-02-27T04:44:56.756Z,4.43
2019-02-27T04:46:03.909Z,5.20
2019-02-27T04:47:11.059Z,3.63
2019-02-27T04:48:18.233Z,4.40
2019-02-27T04:49:26.488Z,5.20
2019-02-27T04:50:33.663Z,4.17
2019-02-27T04:51:40.818Z,7.30
2019-02-27T04:52:47.971Z,4.37
2019-02-27T04:53:56.117Z,3.50
2019-02-27T04:55:03.185Z,3.77
2019-02-27T04:56:10.359Z,3.83
2019-02-27T04:57:17.509Z,4.00
2019-02-27T04:58:24.672Z,3.60
2019-02-27T04:59:31.815Z,3.83
2019-02-27T05:00:38.962Z,4.47
2019-02-27T05:01:46.187Z,5.13
2019-02-27T05:02:54.001Z,4.40
2019-02-27T05:04:02.144Z,5.10
2019-02-27T05:05:09.384Z,8.07
2019-02-27T05:06:16.470Z,4.73
2019-02-27T05:07:23.619Z,4.43
2019-02-27T05:08:30.796Z,5.27
2019-02-27T05:09:37.954Z,4.97
2019-02-27T05:10:45.127Z,4.60
2019-02-27T05:11:52.294Z,4.17
2019-02-27T05:12:59.452Z,5.23
2019-02-27T05:14:07.093Z,4.03
2019-02-27T05:15:14.832Z,4.73
2019-02-27T05:16:22.577Z,4.70
2019-02-27T05:17:29.747Z,4.10
2019-02-27T05:18:36.908Z,4.63
2019-02-27T05:19:44.067Z,4.13
2019-02-27T05:20:51.235Z,5.60
2019-02-27T05:21:58.377Z,4.57
2019-02-27T05:23:05.522Z,4.00
2019-02-27T05:24:12.677Z,4.63
2019-02-27T05:25:19.827Z,4.37
2019-02-27T05:26:27.800Z,4.00
2019-02-27T05:27:35.066Z,3.93
2019-02-27T05:28:42.214Z,3.80
2019-02-27T05:29:49.389Z,4.47
2019-02-27T05:30:56.554Z,4.23
2019-02-27T05:32:03.723Z,4.27
2019-02-27T05:33:10.876Z,4.10
2019-02-27T05:34:18.023Z,4.43
2019-02-27T05:35:25.175Z,5.47
2019-02-27T05:36:32.466Z,4.53
2019-02-27T05:37:39.681Z,5.13
2019-02-27T05:38:46.840Z,3.97
2019-02-27T05:39:53.990Z,4.63
2019-02-27T05:41:01.151Z,4.17
2019-02-27T05:42:08.300Z,5.23
2019-02-27T05:43:15.490Z,4.27
2019-02-27T05:44:22.644Z,5.33
2019-02-27T05:45:31.229Z,4.07
2019-02-27T05:46:39.123Z,5.17
2019-02-27T05:47:46.213Z,4.23
2019-02-27T05:48:53.926Z,4.63
2019-02-27T05:50:01.535Z,4.43
2019-02-27T05:51:10.723Z,4.53
2019-02-27T05:52:18.008Z,4.40
2019-02-27T05:53:25.162Z,4.63
2019-02-27T05:54:32.926Z,4.70
2019-02-27T05:55:40.064Z,5.17
2019-02-27T05:56:49.641Z,5.13
2019-02-27T05:57:56.066Z,4.30
2019-02-27T05:59:04.199Z,4.23
2019-02-27T06:00:15.561Z,4.33
2019-02-27T06:01:22.707Z,4.60
2019-02-27T06:02:29.862Z,5.33
2019-02-27T06:03:36.998Z,5.47
2019-02-27T06:04:45.160Z,5.33
2019-02-27T06:05:52.328Z,6.67
2019-02-27T06:06:59.470Z,5.37
2019-02-27T06:08:06.619Z,6.73
2019-02-27T06:09:13.762Z,6.47
2019-02-27T06:10:22.830Z,5.63
2019-02-27T06:11:32.966Z,5.60
2019-02-27T06:12:40.755Z,6.97
2019-02-27T06:13:48.232Z,7.30
2019-02-27T06:14:55.588Z,5.50
2019-02-27T06:16:03.835Z,5.27
2019-02-27T06:17:12.856Z,5.07
2019-02-27T06:18:23.358Z,6.33
2019-02-27T06:19:33.319Z,9.47
2019-02-27T06:20:41.590Z,4.47
2019-02-27T06:21:47.246Z,4.90
2019-02-27T06:22:54.423Z,5.33
2019-02-27T06:24:01.577Z,6.17
2019-02-27T06:25:11.471Z,5.63
2019-02-27T06:26:18.623Z,4.47
2019-02-27T06:27:25.789Z,5.37
2019-02-27T06:28:32.951Z,4.30
2019-02-27T06:29:40.121Z,4.40
2019-02-27T06:30:47.321Z,5.03
2019-02-27T06:31:54.472Z,6.67
2019-02-27T06:33:01.621Z,4.77
2019-02-27T06:34:09.861Z,4.67
2019-02-27T06:35:17.030Z,6.13
2019-02-27T06:36:24.179Z,4.33
2019-02-27T06:37:31.336Z,5.07
2019-02-27T06:38:38.487Z,4.50
2019-02-27T06:39:45.644Z,4.77
2019-02-27T06:40:52.794Z,3.63
2019-02-27T06:41:59.938Z,5.43
2019-02-27T06:43:07.084Z,5.70
2019-02-27T06:44:14.163Z,4.43
2019-02-27T06:45:21.325Z,4.50
2019-02-27T06:46:28.472Z,4.03
2019-02-27T06:47:36.227Z,5.87
2019-02-27T06:48:44.089Z,4.97
2019-02-27T06:49:51.872Z,5.30
2019-02-27T06:51:00.979Z,5.00
2019-02-27T06:52:09.881Z,5.10
2019-02-27T06:53:17.081Z,5.07
2019-02-27T06:54:24.225Z,4.57
2019-02-27T06:55:31.378Z,4.23
2019-02-27T06:56:38.445Z,6.37
2019-02-27T06:57:45.701Z,4.40
2019-02-27T06:58:52.834Z,4.93
2019-02-27T07:00:02.155Z,6.40
2019-02-27T07:01:13.106Z,3.97
2019-02-27T07:02:21.545Z,4.33
2019-02-27T07:03:29.862Z,5.93
2019-02-27T07:04:39.640Z,4.83
2019-02-27T07:05:48.133Z,4.00
2019-02-27T07:06:55.489Z,5.80
2019-02-27T07:08:05.218Z,6.80
2019-02-27T07:09:12.228Z,13.03
2019-02-27T07:10:19.922Z,9.90
2019-02-27T07:11:27.815Z,8.17
2019-02-27T07:12:34.964Z,9.17
2019-02-27T07:13:42.131Z,7.20
2019-02-27T07:14:49.279Z,7.50
2019-02-27T07:15:56.334Z,11.47
2019-02-27T07:17:03.505Z,8.23
2019-02-27T07:18:11.929Z,9.97
2019-02-27T07:19:19.143Z,8.67
2019-02-27T07:20:26.288Z,10.30
2019-02-27T07:21:33.645Z,13.43
2019-02-27T07:22:45.524Z,10.27
2019-02-27T07:23:51.391Z,9.90
2019-02-27T07:24:58.474Z,8.40
2019-02-27T07:26:05.621Z,8.97
2019-02-27T07:27:12.763Z,7.07
2019-02-27T07:28:19.922Z,6.73
2019-02-27T07:29:27.989Z,7.43
2019-02-27T07:30:35.225Z,7.47
2019-02-27T07:31:42.384Z,6.57
2019-02-27T07:32:49.635Z,5.03
2019-02-27T07:33:56.792Z,5.57
2019-02-27T07:35:04.112Z,6.13
2019-02-27T07:36:11.428Z,5.67
2019-02-27T07:37:18.595Z,5.80
2019-02-27T07:38:25.805Z,4.43
2019-02-27T07:39:33.405Z,4.13
2019-02-27T07:40:42.941Z,5.27
2019-02-27T07:41:49.501Z,5.13
2019-02-27T07:42:56.569Z,4.17
2019-02-27T07:44:03.723Z,5.67
2019-02-27T07:45:14.170Z,4.27
2019-02-27T07:46:22.404Z,5.47
2019-02-27T07:47:30.278Z,3.93
2019-02-27T07:48:37.716Z,4.53
2019-02-27T07:49:44.903Z,4.77
2019-02-27T07:50:52.055Z,4.73
2019-02-27T07:51:59.190Z,5.87
2019-02-27T07:53:06.720Z,3.87
2019-02-27T07:54:13.894Z,4.67
2019-02-27T07:55:22.939Z,4.70
2019-02-27T07:56:29.913Z,7.83
2019-02-27T07:57:37.068Z,5.40
2019-02-27T07:58:44.229Z,4.90
2019-02-27T07:59:51.402Z,5.90
2019-02-27T08:00:58.590Z,4.70
2019-02-27T08:02:05.743Z,4.83
2019-02-27T08:03:13.156Z,4.10
2019-02-27T08:04:22.859Z,6.43
2019-02-27T08:05:29.244Z,5.80
2019-02-27T08:06:37.820Z,5.47
2019-02-27T08:07:48.709Z,5.67
2019-02-27T08:08:56.926Z,6.53
2019-02-27T08:10:04.621Z,5.20
2019-02-27T08:11:14.144Z,5.33
2019-02-27T08:12:21.415Z,5.00
2019-02-27T08:13:30.256Z,4.77
2019-02-27T08:14:37.876Z,5.37
2019-02-27T08:15:45.240Z,6.60
2019-02-27T08:16:56.945Z,5.20
2019-02-27T08:18:01.274Z,5.20
2019-02-27T08:19:08.903Z,7.33
2019-02-27T08:20:20.200Z,4.73
2019-02-27T08:21:26.388Z,6.23
2019-02-27T08:22:33.541Z,6.97
2019-02-27T08:23:40.629Z,5.93
2019-02-27T08:24:47.773Z,7.13
2019-02-27T08:25:54.930Z,9.23
2019-02-27T08:27:02.256Z,5.73
2019-02-27T08:28:09.420Z,4.73
2019-02-27T08:29:16.582Z,6.80
2019-02-27T08:30:23.754Z,5.53
2019-02-27T08:31:32.095Z,5.30
2019-02-27T08:32:39.343Z,5.47
2019-02-27T08:33:46.437Z,7.37
2019-02-27T08:34:53.586Z,5.70
2019-02-27T08:36:00.748Z,5.50
2019-02-27T08:37:07.907Z,5.60
2019-02-27T08:38:15.063Z,5.40
2019-02-27T08:39:22.077Z,5.23
2019-02-27T08:40:29.223Z,7.00
2019-02-27T08:41:36.386Z,6.37
2019-02-27T08:42:43.631Z,6.03
2019-02-27T08:43:50.782Z,5.57
2019-02-27T08:44:57.935Z,6.83
2019-02-27T08:46:05.096Z,4.90
2019-02-27T08:47:12.248Z,4.97
2019-02-27T08:48:19.394Z,5.60
2019-02-27T08:49:26.620Z,4.87
2019-02-27T08:50:34.086Z,6.53
2019-02-27T08:51:42.160Z,5.40
2019-02-27T08:52:51.591Z,5.50
2019-02-27T08:53:59.937Z,4.70
2019-02-27T08:55:07.446Z,4.73
2019-02-27T08:56:14.598Z,5.70
2019-02-27T08:57:21.680Z,5.17
2019-02-27T08:58:29.746Z,5.00
2019-02-27T08:59:39.870Z,5.50
2019-02-27T09:00:47.335Z,6.37
2019-02-27T09:01:56.367Z,4.93
2019-02-27T09:03:03.834Z,6.37
2019-02-27T09:04:12.266Z,5.63
2019-02-27T09:05:20.761Z,5.97
2019-02-27T09:06:28.290Z,5.23
2019-02-27T09:07:36.461Z,6.37
2019-02-27T09:08:44.398Z,5.37
2019-02-27T09:09:52.337Z,5.37
2019-02-27T09:11:05.532Z,6.37
2019-02-27T09:12:13.216Z,7.17
2019-02-27T09:13:17.330Z,5.73
2019-02-27T09:14:24.502Z,7.73
2019-02-27T09:15:31.666Z,5.20
2019-02-27T09:16:38.817Z,5.60
2019-02-27T09:17:45.974Z,6.63
2019-02-27T09:18:53.131Z,5.70
2019-02-27T09:20:00.289Z,5.20
2019-02-27T09:21:07.443Z,4.20
2019-02-27T09:22:15.129Z,6.33
2019-02-27T09:23:22.266Z,4.47
2019-02-27T09:24:29.431Z,5.90
2019-02-27T09:25:36.612Z,5.37
2019-02-27T09:26:43.769Z,4.03
2019-02-27T09:27:50.932Z,6.47
2019-02-27T09:28:58.081Z,4.60
2019-02-27T09:30:06.330Z,4.43
2019-02-27T09:31:13.506Z,5.83
2019-02-27T09:32:20.663Z,4.73
2019-02-27T09:33:27.815Z,5.30
2019-02-27T09:34:34.970Z,4.63
2019-02-27T09:35:42.155Z,4.40
2019-02-27T09:36:50.942Z,4.23
2019-02-27T09:37:58.182Z,4.77
2019-02-27T09:39:06.782Z,4.10
2019-02-27T09:40:17.851Z,4.00
2019-02-27T09:41:25.020Z,3.57
2019-02-27T09:42:32.172Z,4.40
2019-02-27T09:43:39.355Z,4.53
2019-02-27T09:44:46.582Z,5.20
2019-02-27T09:45:54.157Z,4.40
2019-02-27T09:47:01.317Z,4.07
2019-02-27T09:48:11.685Z,4.43
2019-02-27T09:49:18.854Z,4.17
2019-02-27T09:50:38.315Z,4.70
2019-02-27T09:51:45.398Z,5.03
2019-02-27T09:52:52.554Z,5.50
2019-02-27T09:53:59.723Z,3.97
2019-02-27T09:55:07.320Z,4.03
2019-02-27T09:56:14.498Z,3.90
2019-02-27T09:57:21.649Z,4.53
2019-02-27T09:58:28.821Z,4.20
2019-02-27T09:59:35.912Z,3.77
2019-02-27T10:00:52.193Z,4.30
2019-02-27T10:01:59.359Z,5.77
2019-02-27T10:03:06.875Z,4.43
2019-02-27T10:04:14.015Z,4.13
2019-02-27T10:05:21.159Z,6.77
2019-02-27T10:06:28.325Z,4.90
2019-02-27T10:07:35.482Z,5.30
2019-02-27T10:08:42.731Z,6.47
2019-02-27T10:09:49.908Z,4.07
2019-02-27T10:10:57.087Z,4.30
2019-02-27T10:12:04.239Z,4.40
2019-02-27T10:13:11.404Z,4.30
2019-02-27T10:14:18.469Z,4.63
2019-02-27T10:15:25.983Z,4.27
2019-02-27T10:16:34.771Z,5.63
2019-02-27T10:17:43.708Z,4.20
2019-02-27T10:18:54.799Z,5.00
2019-02-27T10:20:02.484Z,4.47
2019-02-27T10:21:12.115Z,3.87
2019-02-27T10:22:20.320Z,4.77
2019-02-27T10:23:30.447Z,3.60
2019-02-27T10:24:37.565Z,3.90
2019-02-27T10:25:44.786Z,4.03
2019-02-27T10:26:53.555Z,3.27
2019-02-27T10:28:04.377Z,3.33
2019-02-27T10:29:10.964Z,3.30
2019-02-27T10:30:19.338Z,5.97
2019-02-27T10:31:26.993Z,3.40
2019-02-27T10:32:36.403Z,3.13
2019-02-27T10:33:43.652Z,4.53
2019-02-27T10:34:53.498Z,4.57
2019-02-27T10:36:03.336Z,5.50
2019-02-27T10:37:12.912Z,4.77
2019-02-27T10:38:17.514Z,3.97
2019-02-27T10:39:24.740Z,3.13
2019-02-27T10:40:31.897Z,3.40
2019-02-27T10:41:39.060Z,3.60
2019-02-27T10:42:46.291Z,3.93
2019-02-27T10:43:53.934Z,3.67
2019-02-27T10:45:02.326Z,3.90
2019-02-27T10:46:10.851Z,3.60
2019-02-27T10:47:18.001Z,4.07
2019-02-27T10:48:25.343Z,3.73
2019-02-27T10:49:32.532Z,4.17
2019-02-27T10:50:39.693Z,4.03
2019-02-27T10:51:48.718Z,3.70
2019-02-27T10:52:55.874Z,3.50
2019-02-27T10:54:05.308Z,3.77
2019-02-27T10:55:14.177Z,3.27
2019-02-27T10:56:24.299Z,3.40
2019-02-27T10:57:32.221Z,4.07
2019-02-27T10:58:39.636Z,4.50
2019-02-27T10:59:46.952Z,3.50
2019-02-27T11:00:54.138Z,3.90
2019-02-27T11:02:01.459Z,4.13
2019-02-27T11:03:08.678Z,4.33
2019-02-27T11:04:15.829Z,3.20
2019-02-27T11:05:23.357Z,3.63
2019-02-27T11:06:34.063Z,4.60
2019-02-27T11:07:39.653Z,3.87
2019-02-27T11:08:46.813Z,3.73
2019-02-27T11:09:53.974Z,4.30
2019-02-27T11:11:01.252Z,3.80
2019-02-27T11:12:08.710Z,4.27
2019-02-27T11:13:15.971Z,3.80
2019-02-27T11:14:23.464Z,4.00
2019-02-27T11:15:30.644Z,3.20
2019-02-27T11:16:37.937Z,3.90
2019-02-27T11:17:45.204Z,4.40
2019-02-27T11:18:53.449Z,4.23
2019-02-27T11:20:00.675Z,3.60
2019-02-27T11:21:08.192Z,3.87
2019-02-27T11:22:15.442Z,4.50
2019-02-27T11:23:22.613Z,3.63
2019-02-27T11:24:29.766Z,3.67
2019-02-27T11:25:37.898Z,4.03
2019-02-27T11:26:45.232Z,3.67
2019-02-27T11:27:52.476Z,3.10
2019-02-27T11:28:59.706Z,3.80
2019-02-27T11:30:09.500Z,3.97
2019-02-27T11:31:16.845Z,3.47
2019-02-27T11:32:24.103Z,3.93
2019-02-27T11:33:33.428Z,4.93
2019-02-27T11:34:41.164Z,4.17
2019-02-27T11:35:49.137Z,3.63
2019-02-27T11:36:57.740Z,4.97
2019-02-27T11:38:05.543Z,3.60
2019-02-27T11:39:12.687Z,3.73
2019-02-27T11:40:22.322Z,4.10
2019-02-27T11:41:29.418Z,3.87
2019-02-27T11:42:36.568Z,3.43
2019-02-27T11:43:43.735Z,3.97
2019-02-27T11:44:50.895Z,3.23
2019-02-27T11:45:58.665Z,3.73
2019-02-27T11:47:05.910Z,3.07
2019-02-27T11:48:13.072Z,3.10
2019-02-27T11:49:20.243Z,5.33
2019-02-27T11:50:26.145Z,3.00
2019-02-27T11:51:32.938Z,3.57
2019-02-27T11:52:48.605Z,3.20
2019-02-27T11:53:49.279Z,3.27
2019-02-27T11:54:57.032Z,2.80
2019-02-27T11:56:04.195Z,2.77
2019-02-27T11:57:11.379Z,2.60
2019-02-27T11:58:18.608Z,3.07
2019-02-27T11:59:25.792Z,3.23
2019-02-27T12:00:33.205Z,3.50
2019-02-27T12:01:40.389Z,3.10
2019-02-27T12:02:47.740Z,2.60
2019-02-27T12:03:54.893Z,2.93
2019-02-27T12:05:02.041Z,2.60
2019-02-27T12:06:09.214Z,2.63
2019-02-27T12:07:17.425Z,2.87
2019-02-27T12:08:26.799Z,4.10
2019-02-27T12:09:35.129Z,6.97
2019-02-27T12:10:43.166Z,3.13
2019-02-27T12:11:51.349Z,2.80
2019-02-27T12:13:00.837Z,3.17
2019-02-27T12:14:08.990Z,2.87
2019-02-27T12:15:17.483Z,3.30
2019-02-27T12:16:24.647Z,3.30
2019-02-27T12:17:31.872Z,4.90
2019-02-27T12:18:39.019Z,3.50
2019-02-27T12:19:46.180Z,4.00
2019-02-27T12:20:54.118Z,3.40
2019-02-27T12:22:01.266Z,2.70
2019-02-27T12:23:10.126Z,3.03
2019-02-27T12:24:18.998Z,3.40
2019-02-27T12:25:29.014Z,2.70
2019-02-27T12:26:37.515Z,2.60
2019-02-27T12:27:49.112Z,2.90
2019-02-27T12:28:53.000Z,3.00
2019-02-27T12:30:02.984Z,2.60
2019-02-27T12:31:12.292Z,2.73
2019-02-27T12:32:21.948Z,2.60
2019-02-27T12:33:29.367Z,2.80
2019-02-27T12:34:37.809Z,2.50
2019-02-27T12:35:45.209Z,3.10
2019-02-27T12:36:55.512Z,3.23
2019-02-27T12:38:07.225Z,3.17
2019-02-27T12:39:15.147Z,3.50
2019-02-27T12:40:24.960Z,3.37
2019-02-27T12:41:32.539Z,2.97
2019-02-27T12:42:42.488Z,5.33
2019-02-27T12:43:52.214Z,4.67
2019-02-27T12:44:57.784Z,3.40
2019-02-27T12:46:04.954Z,2.97
2019-02-27T12:47:12.102Z,2.83
2019-02-27T12:48:19.600Z,3.43
2019-02-27T12:49:26.751Z,2.90
2019-02-27T12:50:34.124Z,3.03
2019-02-27T12:51:41.302Z,2.77
2019-02-27T12:52:48.693Z,3.50
2019-02-27T12:53:56.899Z,3.07
2019-02-27T12:55:04.437Z,3.33
2019-02-27T12:56:11.590Z,3.90
2019-02-27T12:57:18.744Z,3.37
2019-02-27T12:58:25.935Z,4.20
2019-02-27T12:59:33.650Z,4.00
2019-02-27T13:00:42.572Z,4.80
2019-02-27T13:01:51.637Z,3.60
2019-02-27T13:02:59.230Z,3.30
2019-02-27T13:04:06.516Z,3.03
2019-02-27T13:05:15.066Z,3.10
2019-02-27T13:06:22.221Z,2.80
2019-02-27T13:07:29.379Z,3.30
2019-02-27T13:08:36.550Z,3.50
2019-02-27T13:09:43.719Z,3.00
2019-02-27T13:10:50.875Z,2.87
2019-02-27T13:11:58.049Z,2.93
2019-02-27T13:13:05.229Z,2.87
2019-02-27T13:14:12.421Z,3.07
2019-02-27T13:15:22.149Z,2.73
2019-02-27T13:16:29.312Z,2.83
2019-02-27T13:17:36.481Z,3.53
2019-02-27T13:18:43.669Z,2.80
2019-02-27T13:19:50.846Z,4.93
2019-02-27T13:20:58.021Z,2.90
2019-02-27T13:22:05.187Z,2.93
2019-02-27T13:23:12.362Z,3.13
2019-02-27T13:24:19.519Z,4.03
2019-02-27T13:25:26.797Z,3.40
2019-02-27T13:26:35.415Z,3.17
2019-02-27T13:27:43.277Z,3.13
2019-02-27T13:28:51.172Z,2.93
2019-02-27T13:30:08.378Z,4.07
2019-02-27T13:31:07.214Z,3.30
2019-02-27T13:32:14.378Z,3.27
2019-02-27T13:33:21.539Z,2.53
2019-02-27T13:34:28.703Z,2.70
2019-02-27T13:35:35.860Z,2.80
2019-02-27T13:36:43.029Z,3.87
2019-02-27T13:37:50.455Z,3.67
2019-02-27T13:38:59.330Z,3.70
2019-02-27T13:40:10.849Z,3.40
2019-02-27T13:41:18.027Z,3.37
2019-02-27T13:42:25.197Z,2.97
2019-02-27T13:43:32.345Z,3.33
2019-02-27T13:44:39.515Z,3.27
2019-02-27T13:45:47.696Z,3.00
2019-02-27T13:46:57.014Z,3.03
2019-02-27T13:48:06.016Z,2.80
2019-02-27T13:49:13.984Z,2.40
2019-02-27T13:50:23.434Z,3.93
2019-02-27T13:51:30.913Z,2.90
2019-02-27T13:52:38.079Z,4.07
2019-02-27T13:53:45.249Z,3.37
2019-02-27T13:54:52.338Z,3.03
2019-02-27T13:55:59.500Z,3.10
2019-02-27T13:57:06.665Z,5.53
2019-02-27T13:58:13.855Z,3.47
2019-02-27T13:59:20.930Z,3.40
2019-02-27T14:00:30.043Z,3.00
2019-02-27T14:01:37.190Z,4.73
2019-02-27T14:02:44.359Z,3.20
2019-02-27T14:03:51.573Z,2.93
2019-02-27T14:05:00.638Z,3.13
2019-02-27T14:06:09.393Z,3.97
2019-02-27T14:07:18.222Z,3.43
2019-02-27T14:08:31.705Z,3.10
2019-02-27T14:09:35.538Z,3.47
2019-02-27T14:10:42.724Z,4.87
2019-02-27T14:11:51.071Z,4.00
2019-02-27T14:12:58.337Z,3.60
2019-02-27T14:14:05.582Z,4.17
2019-02-27T14:15:13.470Z,3.70
2019-02-27T14:16:20.718Z,3.87
2019-02-27T14:17:27.868Z,4.00
2019-02-27T14:18:35.031Z,3.40
2019-02-27T14:19:42.058Z,3.43
2019-02-27T14:20:49.216Z,4.00
2019-02-27T14:21:57.591Z,3.60
2019-02-27T14:23:04.868Z,4.13
2019-02-27T14:24:12.218Z,3.40
2019-02-27T14:25:22.130Z,3.90
2019-02-27T14:26:29.706Z,4.10
2019-02-27T14:27:36.947Z,4.10
2019-02-27T14:28:44.044Z,4.20
2019-02-27T14:29:51.204Z,3.90
2019-02-27T14:30:58.369Z,3.97
2019-02-27T14:32:05.724Z,3.50
2019-02-27T14:33:12.898Z,3.37
2019-02-27T14:34:20.075Z,3.80
2019-02-27T14:35:27.249Z,4.23
2019-02-27T14:36:34.434Z,5.57
2019-02-27T14:37:41.705Z,5.10
2019-02-27T14:38:48.821Z,4.57
2019-02-27T14:39:55.901Z,4.10
2019-02-27T14:41:03.089Z,3.10
2019-02-27T14:42:10.252Z,3.87
2019-02-27T14:43:17.409Z,4.07
2019-02-27T14:44:24.607Z,3.93
2019-02-27T14:45:32.872Z,4.17
2019-02-27T14:46:41.932Z,4.87
2019-02-27T14:47:50.137Z,4.67
2019-02-27T14:48:57.315Z,4.73
2019-02-27T14:50:04.951Z,3.67
2019-02-27T14:51:12.283Z,4.50
2019-02-27T14:52:19.450Z,5.17
2019-02-27T14:53:26.689Z,4.00
2019-02-27T14:54:33.860Z,4.33
2019-02-27T14:55:41.053Z,4.13
2019-02-27T14:56:49.508Z,4.23
2019-02-27T14:57:56.786Z,4.27
2019-02-27T14:59:03.958Z,3.90
2019-02-27T15:00:24.529Z,4.00
2019-02-27T15:01:31.865Z,4.37
2019-02-27T15:02:39.024Z,3.67
2019-02-27T15:03:46.183Z,4.20
2019-02-27T15:04:53.343Z,3.60
2019-02-27T15:06:00.512Z,3.97
2019-02-27T15:07:07.855Z,3.97
2019-02-27T15:08:15.025Z,3.70
2019-02-27T15:09:22.180Z,4.40
2019-02-27T15:10:29.341Z,4.30
2019-02-27T15:11:36.496Z,4.00
2019-02-27T15:12:43.690Z,4.50
2019-02-27T15:13:50.904Z,3.67
2019-02-27T15:14:58.046Z,4.23
2019-02-27T15:16:05.546Z,4.13
2019-02-27T15:17:12.722Z,3.70
2019-02-27T15:18:22.427Z,4.30
2019-02-27T15:19:30.077Z,3.77
2019-02-27T15:20:41.042Z,4.33
2019-02-27T15:21:48.403Z,4.17
2019-02-27T15:22:55.586Z,4.30
2019-02-27T15:24:02.738Z,3.67
2019-02-27T15:25:12.450Z,3.27
2019-02-27T15:26:19.596Z,4.20
2019-02-27T15:27:26.788Z,4.10
2019-02-27T15:28:34.065Z,4.73
2019-02-27T15:29:41.285Z,4.20
2019-02-27T15:30:48.462Z,4.97
2019-02-27T15:31:55.699Z,3.97
2019-02-27T15:33:05.087Z,4.10
2019-02-27T15:34:12.814Z,4.57
2019-02-27T15:35:21.940Z,6.73
2019-02-27T15:36:30.421Z,3.90
2019-02-27T15:37:38.019Z,3.93
2019-02-27T15:38:46.134Z,4.20
2019-02-27T15:39:55.034Z,4.07
2019-02-27T15:41:03.422Z,4.07
2019-02-27T15:42:10.777Z,3.43
2019-02-27T15:43:18.170Z,3.93
2019-02-27T15:44:25.314Z,3.30
2019-02-27T15:45:32.529Z,4.80
2019-02-27T15:46:39.873Z,4.07
2019-02-27T15:47:47.566Z,3.80
2019-02-27T15:49:08.619Z,4.23
2019-02-27T15:50:22.677Z,3.50